PWSweather.com
Personal Weather Stations
Station Observations
SPARKSRC
St. Petersburg, FL 33716

St. Petersburg, FL 33716

Lat: 27.876101, Lon: -82.657194

Elevation: 13

Station Type: Zephyr PWS-1000TD

High Low Average
Temperature 89.1°F31.7°F 64.2°F17.9°F 73.0°F22.8°F
Dew Point 70.7°F21.5°F 63.5°F17.5°F 66.1°F18.9°F
Winds 11.4 mph WNW18.3 mph WNW Calm Calm 3.8 mph 6.1 mph
Wind Gusts 17.4 mph28.0 mph 1.6 mph2.6 mph 7.4 mph11.9 mph
Humidity 99% 52% 82%
Pressure 30.15 in1021.00 in 30.06 in1017.90 in -
Precipitation 0.00 in0.00 in - -
Hour Temp Dew Point Humidity Winds Wind Gusts Pressure Precip Precip Rate Daily Precip Total
12:00 AM 65.7°F18.7°C 65.4°F18.6°C 99% 2.2 mph WSW3.5 kmh WSW 5.4 mph8.7 kmh 30.12 in1020.0 mb 0.00 in0.0 mm 0.00 in0.0 mm 0.00 in0.0 mm
12:05 AM 65.7°F18.7°C 65.4°F18.6°C 99% 2.2 mph W3.5 kmh W 5.4 mph8.7 kmh 30.12 in1020.0 mb 0.00 in0.0 mm 0.00 in0.0 mm 0.00 in0.0 mm
12:10 AM 65.8°F18.8°C 65.6°F18.7°C 99% 2.2 mph W3.5 kmh W 3.8 mph6.1 kmh 30.12 in1020.0 mb 0.00 in0.0 mm 0.00 in0.0 mm 0.00 in0.0 mm
12:15 AM 66.0°F18.9°C 65.8°F18.8°C 99% 2.2 mph W3.5 kmh W 4.5 mph7.2 kmh 30.12 in1020.0 mb 0.00 in0.0 mm 0.00 in0.0 mm 0.00 in0.0 mm
12:20 AM 66.2°F19.0°C 65.9°F18.8°C 99% 2.2 mph W3.5 kmh W 4.5 mph7.2 kmh 30.13 in1020.3 mb 0.00 in0.0 mm 0.00 in0.0 mm 0.00 in0.0 mm
12:25 AM 66.2°F19.0°C 65.9°F18.8°C 99% 2.2 mph W3.5 kmh W 3.8 mph6.1 kmh 30.12 in1020.0 mb 0.00 in0.0 mm 0.00 in0.0 mm 0.00 in0.0 mm
12:30 AM 66.2°F19.0°C 65.9°F18.8°C 99% 2.2 mph W3.5 kmh W 3.8 mph6.1 kmh 30.12 in1020.0 mb 0.00 in0.0 mm 0.00 in0.0 mm 0.00 in0.0 mm
12:35 AM 66.2°F19.0°C 65.9°F18.8°C 99% 3.1 mph WNW5.0 kmh WNW 3.8 mph6.1 kmh 30.12 in1020.0 mb 0.00 in0.0 mm 0.00 in0.0 mm 0.00 in0.0 mm
12:40 AM 66.2°F19.0°C 65.9°F18.8°C 99% 3.1 mph NW5.0 kmh NW 3.8 mph6.1 kmh 30.12 in1020.0 mb 0.00 in0.0 mm 0.00 in0.0 mm 0.00 in0.0 mm
12:45 AM 66.2°F19.0°C 65.9°F18.8°C 99% 1.6 mph NW2.6 kmh NW 3.8 mph6.1 kmh 30.13 in1020.3 mb 0.00 in0.0 mm 0.00 in0.0 mm 0.00 in0.0 mm
12:50 AM 66.2°F19.0°C 65.9°F18.8°C 99% 1.6 mph NW2.6 kmh NW 3.1 mph5.0 kmh 30.12 in1020.0 mb 0.00 in0.0 mm 0.00 in0.0 mm 0.00 in0.0 mm
12:55 AM 65.7°F18.7°C 65.4°F18.6°C 99% 2.2 mph WNW3.5 kmh WNW 3.1 mph5.0 kmh 30.12 in1020.0 mb 0.00 in0.0 mm 0.00 in0.0 mm 0.00 in0.0 mm
01:00 AM 65.3°F18.5°C 65.0°F18.3°C 99% 0.7 mph W1.1 kmh W 3.1 mph5.0 kmh 30.13 in1020.3 mb 0.00 in0.0 mm 0.00 in0.0 mm 0.00 in0.0 mm
01:05 AM 65.3°F18.5°C 65.0°F18.3°C 99% 0.7 mph W1.1 kmh W 3.1 mph5.0 kmh 30.12 in1020.0 mb 0.00 in0.0 mm 0.00 in0.0 mm 0.00 in0.0 mm
01:10 AM 65.1°F18.4°C 64.9°F18.3°C 99% 0.7 mph W1.1 kmh W 2.2 mph3.5 kmh 30.12 in1020.0 mb 0.00 in0.0 mm 0.00 in0.0 mm 0.00 in0.0 mm
01:15 AM 64.8°F18.2°C 64.5°F18.1°C 99% 0.7 mph W1.1 kmh W 2.2 mph3.5 kmh 30.12 in1020.0 mb 0.00 in0.0 mm 0.00 in0.0 mm 0.00 in0.0 mm
01:20 AM 64.6°F18.1°C 64.3°F17.9°C 99% 0.7 mph W1.1 kmh W 2.2 mph3.5 kmh 30.12 in1020.0 mb 0.00 in0.0 mm 0.00 in0.0 mm 0.00 in0.0 mm
01:25 AM 64.8°F18.2°C 64.5°F18.1°C 99% 0.7 mph W1.1 kmh W 2.2 mph3.5 kmh 30.12 in1020.0 mb 0.00 in0.0 mm 0.00 in0.0 mm 0.00 in0.0 mm
01:30 AM 64.6°F18.1°C 64.3°F17.9°C 99% 1.6 mph W2.6 kmh W 2.2 mph3.5 kmh 30.12 in1020.0 mb 0.00 in0.0 mm 0.00 in0.0 mm 0.00 in0.0 mm
01:35 AM 64.6°F18.1°C 64.3°F17.9°C 99% 0.7 mph W1.1 kmh W 3.1 mph5.0 kmh 30.12 in1020.0 mb 0.00 in0.0 mm 0.00 in0.0 mm 0.00 in0.0 mm
01:40 AM 64.4°F18.0°C 64.1°F17.8°C 99% 0.7 mph W1.1 kmh W 3.1 mph5.0 kmh 30.12 in1020.0 mb 0.00 in0.0 mm 0.00 in0.0 mm 0.00 in0.0 mm
01:45 AM 64.2°F17.9°C 64.0°F17.8°C 99% 2.2 mph W3.5 kmh W 3.8 mph6.1 kmh 30.12 in1020.0 mb 0.00 in0.0 mm 0.00 in0.0 mm 0.00 in0.0 mm
01:50 AM 64.2°F17.9°C 64.0°F17.8°C 99% 2.2 mph WSW3.5 kmh WSW 3.8 mph6.1 kmh 30.11 in1019.6 mb 0.00 in0.0 mm 0.00 in0.0 mm 0.00 in0.0 mm
01:55 AM 64.6°F18.1°C 64.3°F17.9°C 99% 3.8 mph SW6.1 kmh SW 5.4 mph8.7 kmh 30.11 in1019.6 mb 0.00 in0.0 mm 0.00 in0.0 mm 0.00 in0.0 mm
02:00 AM 64.4°F18.0°C 64.1°F17.8°C 99% 2.2 mph WSW3.5 kmh WSW 5.4 mph8.7 kmh 30.12 in1020.0 mb 0.00 in0.0 mm 0.00 in0.0 mm 0.00 in0.0 mm
02:05 AM 64.6°F18.1°C 64.3°F17.9°C 99% 3.1 mph W5.0 kmh W 5.4 mph8.7 kmh 30.12 in1020.0 mb 0.00 in0.0 mm 0.00 in0.0 mm 0.00 in0.0 mm
02:10 AM 64.6°F18.1°C 64.3°F17.9°C 99% 3.1 mph WSW5.0 kmh WSW 4.5 mph7.2 kmh 30.11 in1019.6 mb 0.00 in0.0 mm 0.00 in0.0 mm 0.00 in0.0 mm
02:15 AM 64.6°F18.1°C 64.3°F17.9°C 99% 3.1 mph WSW5.0 kmh WSW 4.5 mph7.2 kmh 30.11 in1019.6 mb 0.00 in0.0 mm 0.00 in0.0 mm 0.00 in0.0 mm
02:20 AM 64.6°F18.1°C 64.3°F17.9°C 99% 3.1 mph WSW5.0 kmh WSW 4.5 mph7.2 kmh 30.11 in1019.6 mb 0.00 in0.0 mm 0.00 in0.0 mm 0.00 in0.0 mm
02:25 AM 64.6°F18.1°C 64.3°F17.9°C 99% 3.1 mph WSW5.0 kmh WSW 4.5 mph7.2 kmh 30.11 in1019.6 mb 0.00 in0.0 mm 0.00 in0.0 mm 0.00 in0.0 mm
02:30 AM 64.6°F18.1°C 64.3°F17.9°C 99% 3.1 mph WSW5.0 kmh WSW 4.5 mph7.2 kmh 30.11 in1019.6 mb 0.00 in0.0 mm 0.00 in0.0 mm 0.00 in0.0 mm
02:35 AM 64.6°F18.1°C 64.3°F17.9°C 99% 3.1 mph WSW5.0 kmh WSW 4.5 mph7.2 kmh 30.11 in1019.6 mb 0.00 in0.0 mm 0.00 in0.0 mm 0.00 in0.0 mm
02:40 AM 64.6°F18.1°C 64.3°F17.9°C 99% 3.1 mph WSW5.0 kmh WSW 4.5 mph7.2 kmh 30.11 in1019.6 mb 0.00 in0.0 mm 0.00 in0.0 mm 0.00 in0.0 mm
02:45 AM 64.6°F18.1°C 64.3°F17.9°C 99% 3.1 mph WSW5.0 kmh WSW 4.5 mph7.2 kmh 30.11 in1019.6 mb 0.00 in0.0 mm 0.00 in0.0 mm 0.00 in0.0 mm
02:50 AM 64.6°F18.1°C 64.3°F17.9°C 99% 3.1 mph WSW5.0 kmh WSW 4.5 mph7.2 kmh 30.10 in1019.3 mb 0.00 in0.0 mm 0.00 in0.0 mm 0.00 in0.0 mm
02:55 AM 64.6°F18.1°C 64.3°F17.9°C 99% 3.1 mph WSW5.0 kmh WSW 4.5 mph7.2 kmh 30.10 in1019.3 mb 0.00 in0.0 mm 0.00 in0.0 mm 0.00 in0.0 mm
03:00 AM 64.6°F18.1°C 64.3°F17.9°C 99% 3.1 mph WSW5.0 kmh WSW 4.5 mph7.2 kmh 30.10 in1019.3 mb 0.00 in0.0 mm 0.00 in0.0 mm 0.00 in0.0 mm
03:05 AM 64.6°F18.1°C 64.3°F17.9°C 99% 3.1 mph WSW5.0 kmh WSW 4.5 mph7.2 kmh 30.10 in1019.3 mb 0.00 in0.0 mm 0.00 in0.0 mm 0.00 in0.0 mm
03:10 AM 64.6°F18.1°C 64.3°F17.9°C 99% 3.1 mph WSW5.0 kmh WSW 4.5 mph7.2 kmh 30.09 in1019.0 mb 0.00 in0.0 mm 0.00 in0.0 mm 0.00 in0.0 mm
03:15 AM 64.6°F18.1°C 64.3°F17.9°C 99% 3.1 mph WSW5.0 kmh WSW 4.5 mph7.2 kmh 30.10 in1019.3 mb 0.00 in0.0 mm 0.00 in0.0 mm 0.00 in0.0 mm
03:20 AM 64.6°F18.1°C 64.3°F17.9°C 99% 3.1 mph WSW5.0 kmh WSW 4.5 mph7.2 kmh 30.09 in1019.0 mb 0.00 in0.0 mm 0.00 in0.0 mm 0.00 in0.0 mm
03:25 AM 64.6°F18.1°C 64.3°F17.9°C 99% 3.1 mph WSW5.0 kmh WSW 4.5 mph7.2 kmh 30.09 in1019.0 mb 0.00 in0.0 mm 0.00 in0.0 mm 0.00 in0.0 mm
03:30 AM 64.6°F18.1°C 64.3°F17.9°C 99% 3.1 mph WSW5.0 kmh WSW 4.5 mph7.2 kmh 30.09 in1019.0 mb 0.00 in0.0 mm 0.00 in0.0 mm 0.00 in0.0 mm
03:35 AM 64.6°F18.1°C 64.3°F17.9°C 99% 3.1 mph WSW5.0 kmh WSW 4.5 mph7.2 kmh 30.09 in1019.0 mb 0.00 in0.0 mm 0.00 in0.0 mm 0.00 in0.0 mm
03:40 AM 64.6°F18.1°C 64.3°F17.9°C 99% 3.1 mph WSW5.0 kmh WSW 4.5 mph7.2 kmh 30.09 in1019.0 mb 0.00 in0.0 mm 0.00 in0.0 mm 0.00 in0.0 mm
03:45 AM 64.6°F18.1°C 64.3°F17.9°C 99% 3.1 mph WSW5.0 kmh WSW 4.5 mph7.2 kmh 30.09 in1019.0 mb 0.00 in0.0 mm 0.00 in0.0 mm 0.00 in0.0 mm
03:50 AM 64.6°F18.1°C 64.3°F17.9°C 99% 3.1 mph WSW5.0 kmh WSW 4.5 mph7.2 kmh 30.09 in1019.0 mb 0.00 in0.0 mm 0.00 in0.0 mm 0.00 in0.0 mm
03:55 AM 64.6°F18.1°C 64.3°F17.9°C 99% 3.1 mph WSW5.0 kmh WSW 4.5 mph7.2 kmh 30.08 in1018.6 mb 0.00 in0.0 mm 0.00 in0.0 mm 0.00 in0.0 mm
04:00 AM 64.6°F18.1°C 64.3°F17.9°C 99% 3.1 mph WSW5.0 kmh WSW 4.5 mph7.2 kmh 30.08 in1018.6 mb 0.00 in0.0 mm 0.00 in0.0 mm 0.00 in0.0 mm
04:05 AM 64.6°F18.1°C 64.3°F17.9°C 99% 3.1 mph WSW5.0 kmh WSW 4.5 mph7.2 kmh 30.08 in1018.6 mb 0.00 in0.0 mm 0.00 in0.0 mm 0.00 in0.0 mm
04:10 AM 64.6°F18.1°C 64.3°F17.9°C 99% 3.1 mph WSW5.0 kmh WSW 4.5 mph7.2 kmh 30.09 in1019.0 mb 0.00 in0.0 mm 0.00 in0.0 mm 0.00 in0.0 mm
04:15 AM 64.6°F18.1°C 64.3°F17.9°C 99% 3.1 mph WSW5.0 kmh WSW 4.5 mph7.2 kmh 30.09 in1019.0 mb 0.00 in0.0 mm 0.00 in0.0 mm 0.00 in0.0 mm
04:20 AM 64.6°F18.1°C 64.3°F17.9°C 99% 3.1 mph WSW5.0 kmh WSW 4.5 mph7.2 kmh 30.08 in1018.6 mb 0.00 in0.0 mm 0.00 in0.0 mm 0.00 in0.0 mm
04:25 AM 64.6°F18.1°C 64.3°F17.9°C 99% 3.1 mph WSW5.0 kmh WSW 4.5 mph7.2 kmh 30.08 in1018.6 mb 0.00 in0.0 mm 0.00 in0.0 mm 0.00 in0.0 mm
04:30 AM 64.6°F18.1°C 64.3°F17.9°C 99% 3.1 mph WSW5.0 kmh WSW 4.5 mph7.2 kmh 30.08 in1018.6 mb 0.00 in0.0 mm 0.00 in0.0 mm 0.00 in0.0 mm
04:35 AM 64.6°F18.1°C 64.3°F17.9°C 99% 3.1 mph WSW5.0 kmh WSW 4.5 mph7.2 kmh 30.08 in1018.6 mb 0.00 in0.0 mm 0.00 in0.0 mm 0.00 in0.0 mm
04:40 AM 64.6°F18.1°C 64.3°F17.9°C 99% 3.1 mph WSW5.0 kmh WSW 4.5 mph7.2 kmh 30.08 in1018.6 mb 0.00 in0.0 mm 0.00 in0.0 mm 0.00 in0.0 mm
04:45 AM 64.6°F18.1°C 64.3°F17.9°C 99% 3.1 mph WSW5.0 kmh WSW 4.5 mph7.2 kmh 30.08 in1018.6 mb 0.00 in0.0 mm 0.00 in0.0 mm 0.00 in0.0 mm
04:50 AM 64.6°F18.1°C 64.3°F17.9°C 99% 3.1 mph WSW5.0 kmh WSW 4.5 mph7.2 kmh 30.08 in1018.6 mb 0.00 in0.0 mm 0.00 in0.0 mm 0.00 in0.0 mm
04:55 AM 64.6°F18.1°C 64.3°F17.9°C 99% 3.1 mph WSW5.0 kmh WSW 4.5 mph7.2 kmh 30.07 in1018.3 mb 0.00 in0.0 mm 0.00 in0.0 mm 0.00 in0.0 mm
05:00 AM 64.6°F18.1°C 64.3°F17.9°C 99% 3.1 mph WSW5.0 kmh WSW 4.5 mph7.2 kmh 30.07 in1018.3 mb 0.00 in0.0 mm 0.00 in0.0 mm 0.00 in0.0 mm
05:05 AM 64.6°F18.1°C 64.3°F17.9°C 99% 3.1 mph WSW5.0 kmh WSW 4.5 mph7.2 kmh 30.07 in1018.3 mb 0.00 in0.0 mm 0.00 in0.0 mm 0.00 in0.0 mm
05:10 AM 64.6°F18.1°C 64.3°F17.9°C 99% 3.1 mph WSW5.0 kmh WSW 4.5 mph7.2 kmh 30.07 in1018.3 mb 0.00 in0.0 mm 0.00 in0.0 mm 0.00 in0.0 mm
05:15 AM 64.6°F18.1°C 64.3°F17.9°C 99% 3.1 mph WSW5.0 kmh WSW 4.5 mph7.2 kmh 30.07 in1018.3 mb 0.00 in0.0 mm 0.00 in0.0 mm 0.00 in0.0 mm
05:20 AM 64.6°F18.1°C 64.3°F17.9°C 99% 3.1 mph WSW5.0 kmh WSW 4.5 mph7.2 kmh 30.08 in1018.6 mb 0.00 in0.0 mm 0.00 in0.0 mm 0.00 in0.0 mm
05:25 AM 64.6°F18.1°C 64.3°F17.9°C 99% 3.1 mph WSW5.0 kmh WSW 4.5 mph7.2 kmh 30.08 in1018.6 mb 0.00 in0.0 mm 0.00 in0.0 mm 0.00 in0.0 mm
05:30 AM 64.6°F18.1°C 64.3°F17.9°C 99% 3.1 mph WSW5.0 kmh WSW 4.5 mph7.2 kmh 30.08 in1018.6 mb 0.00 in0.0 mm 0.00 in0.0 mm 0.00 in0.0 mm
05:35 AM 64.6°F18.1°C 64.3°F17.9°C 99% 3.1 mph WSW5.0 kmh WSW 4.5 mph7.2 kmh 30.08 in1018.6 mb 0.00 in0.0 mm 0.00 in0.0 mm 0.00 in0.0 mm
05:40 AM 64.6°F18.1°C 64.3°F17.9°C 99% 3.1 mph WSW5.0 kmh WSW 4.5 mph7.2 kmh 30.08 in1018.6 mb 0.00 in0.0 mm 0.00 in0.0 mm 0.00 in0.0 mm
05:45 AM 64.6°F18.1°C 64.3°F17.9°C 99% 3.1 mph WSW5.0 kmh WSW 4.5 mph7.2 kmh 30.08 in1018.6 mb 0.00 in0.0 mm 0.00 in0.0 mm 0.00 in0.0 mm
05:50 AM 64.6°F18.1°C 64.3°F17.9°C 99% 3.1 mph WSW5.0 kmh WSW 4.5 mph7.2 kmh 30.08 in1018.6 mb 0.00 in0.0 mm 0.00 in0.0 mm 0.00 in0.0 mm
05:55 AM 64.6°F18.1°C 64.3°F17.9°C 99% 3.1 mph WSW5.0 kmh WSW 4.5 mph7.2 kmh 30.08 in1018.6 mb 0.00 in0.0 mm 0.00 in0.0 mm 0.00 in0.0 mm
06:00 AM 64.6°F18.1°C 64.3°F17.9°C 99% 3.1 mph WSW5.0 kmh WSW 4.5 mph7.2 kmh 30.08 in1018.6 mb 0.00 in0.0 mm 0.00 in0.0 mm 0.00 in0.0 mm
06:05 AM 64.6°F18.1°C 64.3°F17.9°C 99% 3.1 mph WSW5.0 kmh WSW 4.5 mph7.2 kmh 30.08 in1018.6 mb 0.00 in0.0 mm 0.00 in0.0 mm 0.00 in0.0 mm
06:10 AM 64.6°F18.1°C 64.3°F17.9°C 99% 3.1 mph WSW5.0 kmh WSW 4.5 mph7.2 kmh 30.08 in1018.6 mb 0.00 in0.0 mm 0.00 in0.0 mm 0.00 in0.0 mm
06:15 AM 64.6°F18.1°C 64.3°F17.9°C 99% 3.1 mph WSW5.0 kmh WSW 4.5 mph7.2 kmh 30.09 in1019.0 mb 0.00 in0.0 mm 0.00 in0.0 mm 0.00 in0.0 mm
06:20 AM 64.6°F18.1°C 64.3°F17.9°C 99% 3.1 mph WSW5.0 kmh WSW 4.5 mph7.2 kmh 30.09 in1019.0 mb 0.00 in0.0 mm 0.00 in0.0 mm 0.00 in0.0 mm
06:25 AM 64.6°F18.1°C 64.3°F17.9°C 99% 3.1 mph WSW5.0 kmh WSW 4.5 mph7.2 kmh 30.09 in1019.0 mb 0.00 in0.0 mm 0.00 in0.0 mm 0.00 in0.0 mm
06:30 AM 64.6°F18.1°C 64.3°F17.9°C 99% 3.1 mph WSW5.0 kmh WSW 4.5 mph7.2 kmh 30.08 in1018.6 mb 0.00 in0.0 mm 0.00 in0.0 mm 0.00 in0.0 mm
06:35 AM 64.6°F18.1°C 64.3°F17.9°C 99% 3.1 mph WSW5.0 kmh WSW 4.5 mph7.2 kmh 30.09 in1019.0 mb 0.00 in0.0 mm 0.00 in0.0 mm 0.00 in0.0 mm
06:40 AM 64.6°F18.1°C 64.3°F17.9°C 99% 3.1 mph WSW5.0 kmh WSW 4.5 mph7.2 kmh 30.09 in1019.0 mb 0.00 in0.0 mm 0.00 in0.0 mm 0.00 in0.0 mm
06:45 AM 64.6°F18.1°C 64.3°F17.9°C 99% 3.1 mph WSW5.0 kmh WSW 4.5 mph7.2 kmh 30.09 in1019.0 mb 0.00 in0.0 mm 0.00 in0.0 mm 0.00 in0.0 mm
06:50 AM 64.6°F18.1°C 64.3°F17.9°C 99% 3.1 mph WSW5.0 kmh WSW 4.5 mph7.2 kmh 30.09 in1019.0 mb 0.00 in0.0 mm 0.00 in0.0 mm 0.00 in0.0 mm
06:55 AM 64.6°F18.1°C 64.3°F17.9°C 99% 3.1 mph WSW5.0 kmh WSW 4.5 mph7.2 kmh 30.09 in1019.0 mb 0.00 in0.0 mm 0.00 in0.0 mm 0.00 in0.0 mm
07:00 AM 64.6°F18.1°C 64.3°F17.9°C 99% 3.1 mph WSW5.0 kmh WSW 4.5 mph7.2 kmh 30.10 in1019.3 mb 0.00 in0.0 mm 0.00 in0.0 mm 0.00 in0.0 mm
07:05 AM 64.6°F18.1°C 64.3°F17.9°C 99% 3.1 mph WSW5.0 kmh WSW 4.5 mph7.2 kmh 30.10 in1019.3 mb 0.00 in0.0 mm 0.00 in0.0 mm 0.00 in0.0 mm
07:10 AM 64.6°F18.1°C 64.3°F17.9°C 99% 3.1 mph WSW5.0 kmh WSW 4.5 mph7.2 kmh 30.10 in1019.3 mb 0.00 in0.0 mm 0.00 in0.0 mm 0.00 in0.0 mm
07:15 AM 64.6°F18.1°C 64.3°F17.9°C 99% 3.1 mph WSW5.0 kmh WSW 4.5 mph7.2 kmh 30.11 in1019.6 mb 0.00 in0.0 mm 0.00 in0.0 mm 0.00 in0.0 mm
07:20 AM 64.6°F18.1°C 64.3°F17.9°C 99% 3.1 mph WSW5.0 kmh WSW 4.5 mph7.2 kmh 30.11 in1019.6 mb 0.00 in0.0 mm 0.00 in0.0 mm 0.00 in0.0 mm
07:25 AM 64.6°F18.1°C 64.3°F17.9°C 99% 3.1 mph WSW5.0 kmh WSW 4.5 mph7.2 kmh 30.11 in1019.6 mb 0.00 in0.0 mm 0.00 in0.0 mm 0.00 in0.0 mm
07:30 AM 64.6°F18.1°C 64.3°F17.9°C 99% 3.1 mph WSW5.0 kmh WSW 4.5 mph7.2 kmh 30.11 in1019.6 mb 0.00 in0.0 mm 0.00 in0.0 mm 0.00 in0.0 mm
07:35 AM 64.6°F18.1°C 64.3°F17.9°C 99% 3.1 mph WSW5.0 kmh WSW 4.5 mph7.2 kmh 30.11 in1019.6 mb 0.00 in0.0 mm 0.00 in0.0 mm 0.00 in0.0 mm
07:40 AM 64.6°F18.1°C 64.3°F17.9°C 99% 3.1 mph WSW5.0 kmh WSW 4.5 mph7.2 kmh 30.12 in1020.0 mb 0.00 in0.0 mm 0.00 in0.0 mm 0.00 in0.0 mm
07:45 AM 64.6°F18.1°C 64.3°F17.9°C 99% 3.1 mph WSW5.0 kmh WSW 4.5 mph7.2 kmh 30.12 in1020.0 mb 0.00 in0.0 mm 0.00 in0.0 mm 0.00 in0.0 mm
07:50 AM 64.6°F18.1°C 64.3°F17.9°C 99% 3.1 mph WSW5.0 kmh WSW 4.5 mph7.2 kmh 30.12 in1020.0 mb 0.00 in0.0 mm 0.00 in0.0 mm 0.00 in0.0 mm
07:55 AM 64.6°F18.1°C 64.3°F17.9°C 99% 3.1 mph WSW5.0 kmh WSW 4.5 mph7.2 kmh 30.12 in1020.0 mb 0.00 in0.0 mm 0.00 in0.0 mm 0.00 in0.0 mm
08:00 AM 64.6°F18.1°C 64.3°F17.9°C 99% 3.1 mph WSW5.0 kmh WSW 4.5 mph7.2 kmh 30.13 in1020.3 mb 0.00 in0.0 mm 0.00 in0.0 mm 0.00 in0.0 mm
08:05 AM 64.6°F18.1°C 64.3°F17.9°C 99% 3.1 mph WSW5.0 kmh WSW 4.5 mph7.2 kmh 30.13 in1020.3 mb 0.00 in0.0 mm 0.00 in0.0 mm 0.00 in0.0 mm
08:10 AM 64.6°F18.1°C 64.3°F17.9°C 99% 3.1 mph WSW5.0 kmh WSW 4.5 mph7.2 kmh 30.13 in1020.3 mb 0.00 in0.0 mm 0.00 in0.0 mm 0.00 in0.0 mm
08:15 AM 64.6°F18.1°C 64.3°F17.9°C 99% 3.1 mph WSW5.0 kmh WSW 4.5 mph7.2 kmh 30.13 in1020.3 mb 0.00 in0.0 mm 0.00 in0.0 mm 0.00 in0.0 mm
08:20 AM 64.6°F18.1°C 64.3°F17.9°C 99% 3.1 mph WSW5.0 kmh WSW 4.5 mph7.2 kmh 30.13 in1020.3 mb 0.00 in0.0 mm 0.00 in0.0 mm 0.00 in0.0 mm
08:25 AM 64.6°F18.1°C 64.3°F17.9°C 99% 3.1 mph WSW5.0 kmh WSW 4.5 mph7.2 kmh 30.14 in1020.7 mb 0.00 in0.0 mm 0.00 in0.0 mm 0.00 in0.0 mm
12:35 PM 86.7°F30.4°C 69.2°F20.7°C 56% 4.5 mph NW7.2 kmh NW 9.8 mph15.8 kmh 30.15 in1021.0 mb 0.00 in0.0 mm 0.00 in0.0 mm 0.00 in0.0 mm
12:40 PM 87.6°F30.9°C 69.5°F20.8°C 55% 3.1 mph NW5.0 kmh NW 9.8 mph15.8 kmh 30.15 in1021.0 mb 0.00 in0.0 mm 0.00 in0.0 mm 0.00 in0.0 mm
12:45 PM 87.6°F30.9°C 69.5°F20.8°C 55% 6.0 mph NW9.7 kmh NW 10.7 mph17.2 kmh 30.14 in1020.7 mb 0.00 in0.0 mm 0.00 in0.0 mm 0.00 in0.0 mm
12:50 PM 87.8°F31.0°C 69.1°F20.6°C 54% 6.0 mph NW9.7 kmh NW 10.7 mph17.2 kmh 30.14 in1020.7 mb 0.00 in0.0 mm 0.00 in0.0 mm 0.00 in0.0 mm
12:55 PM 88.0°F31.1°C 68.8°F20.4°C 53% 3.1 mph NW5.0 kmh NW 10.7 mph17.2 kmh 30.13 in1020.3 mb 0.00 in0.0 mm 0.00 in0.0 mm 0.00 in0.0 mm
01:00 PM 88.7°F31.5°C 69.4°F20.8°C 53% 4.5 mph NW7.2 kmh NW 10.7 mph17.2 kmh 30.14 in1020.7 mb 0.00 in0.0 mm 0.00 in0.0 mm 0.00 in0.0 mm
01:05 PM 88.7°F31.5°C 70.0°F21.1°C 54% 3.8 mph NW6.1 kmh NW 10.7 mph17.2 kmh 30.13 in1020.3 mb 0.00 in0.0 mm 0.00 in0.0 mm 0.00 in0.0 mm
01:10 PM 88.5°F31.4°C 69.3°F20.7°C 53% 2.2 mph NW3.5 kmh NW 9.2 mph14.8 kmh 30.13 in1020.3 mb 0.00 in0.0 mm 0.00 in0.0 mm 0.00 in0.0 mm
01:15 PM 88.9°F31.6°C 69.0°F20.6°C 52% 4.5 mph NW7.2 kmh NW 9.2 mph14.8 kmh 30.12 in1020.0 mb 0.00 in0.0 mm 0.00 in0.0 mm 0.00 in0.0 mm
01:20 PM 87.8°F31.0°C 68.6°F20.3°C 53% 2.2 mph NNW3.5 kmh NNW 9.2 mph14.8 kmh 30.12 in1020.0 mb 0.00 in0.0 mm 0.00 in0.0 mm 0.00 in0.0 mm
01:25 PM 87.3°F30.7°C 69.2°F20.7°C 55% 5.4 mph NW8.7 kmh NW 10.7 mph17.2 kmh 30.11 in1019.6 mb 0.00 in0.0 mm 0.00 in0.0 mm 0.00 in0.0 mm
01:30 PM 88.9°F31.6°C 70.2°F21.2°C 54% 3.8 mph NW6.1 kmh NW 11.4 mph18.3 kmh 30.11 in1019.6 mb 0.00 in0.0 mm 0.00 in0.0 mm 0.00 in0.0 mm
01:35 PM 88.7°F31.5°C 70.0°F21.1°C 54% 7.6 mph WNW12.2 kmh WNW 11.4 mph18.3 kmh 30.12 in1020.0 mb 0.00 in0.0 mm 0.00 in0.0 mm 0.00 in0.0 mm
01:40 PM 88.2°F31.2°C 68.9°F20.5°C 53% 9.2 mph WNW14.8 kmh WNW 13.0 mph20.9 kmh 30.12 in1020.0 mb 0.00 in0.0 mm 0.00 in0.0 mm 0.00 in0.0 mm
01:45 PM 87.6°F30.9°C 69.0°F20.6°C 54% 0.7 mph NW1.1 kmh NW 13.0 mph20.9 kmh 30.11 in1019.6 mb 0.00 in0.0 mm 0.00 in0.0 mm 0.00 in0.0 mm
01:50 PM 88.0°F31.1°C 68.8°F20.4°C 53% 4.5 mph NW7.2 kmh NW 13.0 mph20.9 kmh 30.11 in1019.6 mb 0.00 in0.0 mm 0.00 in0.0 mm 0.00 in0.0 mm
01:55 PM 88.3°F31.3°C 70.7°F21.5°C 56% 6.9 mph NW11.1 kmh NW 9.2 mph14.8 kmh 30.11 in1019.6 mb 0.00 in0.0 mm 0.00 in0.0 mm 0.00 in0.0 mm
02:00 PM 88.2°F31.2°C 68.4°F20.2°C 52% 6.9 mph NW11.1 kmh NW 9.8 mph15.8 kmh 30.11 in1019.6 mb 0.00 in0.0 mm 0.00 in0.0 mm 0.00 in0.0 mm
02:05 PM 86.5°F30.3°C 68.0°F20.0°C 54% 3.8 mph NNW6.1 kmh NNW 9.8 mph15.8 kmh 30.11 in1019.6 mb 0.00 in0.0 mm 0.00 in0.0 mm 0.00 in0.0 mm
02:10 PM 86.4°F30.2°C 68.9°F20.5°C 56% 6.0 mph WNW9.7 kmh WNW 14.5 mph23.3 kmh 30.10 in1019.3 mb 0.00 in0.0 mm 0.00 in0.0 mm 0.00 in0.0 mm
02:15 PM 87.4°F30.8°C 69.9°F21.1°C 56% 6.9 mph W11.1 kmh W 14.5 mph23.3 kmh 30.10 in1019.3 mb 0.00 in0.0 mm 0.00 in0.0 mm 0.00 in0.0 mm
02:20 PM 87.3°F30.7°C 68.6°F20.3°C 54% 3.1 mph W5.0 kmh W 13.0 mph20.9 kmh 30.10 in1019.3 mb 0.00 in0.0 mm 0.00 in0.0 mm 0.00 in0.0 mm
02:25 PM 87.4°F30.8°C 69.4°F20.8°C 55% 4.5 mph W7.2 kmh W 13.0 mph20.9 kmh 30.10 in1019.3 mb 0.00 in0.0 mm 0.00 in0.0 mm 0.00 in0.0 mm
02:30 PM 88.3°F31.3°C 69.6°F20.9°C 54% 3.8 mph NW6.1 kmh NW 9.8 mph15.8 kmh 30.10 in1019.3 mb 0.00 in0.0 mm 0.00 in0.0 mm 0.00 in0.0 mm
02:35 PM 88.3°F31.3°C 69.6°F20.9°C 54% 3.8 mph NW6.1 kmh NW 8.3 mph13.4 kmh 30.09 in1019.0 mb 0.00 in0.0 mm 0.00 in0.0 mm 0.00 in0.0 mm
02:40 PM 89.1°F31.7°C 69.8°F21.0°C 53% 5.4 mph NW8.7 kmh NW 13.0 mph20.9 kmh 30.09 in1019.0 mb 0.00 in0.0 mm 0.00 in0.0 mm 0.00 in0.0 mm
02:45 PM 88.7°F31.5°C 69.4°F20.8°C 53% 2.2 mph W3.5 kmh W 13.0 mph20.9 kmh 30.09 in1019.0 mb 0.00 in0.0 mm 0.00 in0.0 mm 0.00 in0.0 mm
02:50 PM 88.9°F31.6°C 70.2°F21.2°C 54% 5.4 mph W8.7 kmh W 12.1 mph19.5 kmh 30.09 in1019.0 mb 0.00 in0.0 mm 0.00 in0.0 mm 0.00 in0.0 mm
02:55 PM 88.5°F31.4°C 69.3°F20.7°C 53% 3.8 mph W6.1 kmh W 17.4 mph28.0 kmh 30.09 in1019.0 mb 0.00 in0.0 mm 0.00 in0.0 mm 0.00 in0.0 mm
03:00 PM 88.9°F31.6°C 69.6°F20.9°C 53% 6.9 mph W11.1 kmh W 17.4 mph28.0 kmh 30.08 in1018.6 mb 0.00 in0.0 mm 0.00 in0.0 mm 0.00 in0.0 mm
03:05 PM 88.2°F31.2°C 68.9°F20.5°C 53% 9.2 mph WNW14.8 kmh WNW 17.4 mph28.0 kmh 30.08 in1018.6 mb 0.00 in0.0 mm 0.00 in0.0 mm 0.00 in0.0 mm
03:10 PM 87.8°F31.0°C 68.6°F20.3°C 53% 3.1 mph W5.0 kmh W 17.4 mph28.0 kmh 30.08 in1018.6 mb 0.00 in0.0 mm 0.00 in0.0 mm 0.00 in0.0 mm
03:15 PM 88.2°F31.2°C 68.9°F20.5°C 53% 10.7 mph WSW17.2 kmh WSW 14.5 mph23.3 kmh 30.08 in1018.6 mb 0.00 in0.0 mm 0.00 in0.0 mm 0.00 in0.0 mm
03:20 PM 87.6°F30.9°C 69.0°F20.6°C 54% 5.4 mph WSW8.7 kmh WSW 14.5 mph23.3 kmh 30.08 in1018.6 mb 0.00 in0.0 mm 0.00 in0.0 mm 0.00 in0.0 mm
03:25 PM 87.6°F30.9°C 68.4°F20.2°C 53% 5.4 mph W8.7 kmh W 13.6 mph21.9 kmh 30.07 in1018.3 mb 0.00 in0.0 mm 0.00 in0.0 mm 0.00 in0.0 mm
03:30 PM 87.8°F31.0°C 69.1°F20.6°C 54% 9.8 mph W15.8 kmh W 16.8 mph27.0 kmh 30.08 in1018.6 mb 0.00 in0.0 mm 0.00 in0.0 mm 0.00 in0.0 mm
03:35 PM 87.1°F30.6°C 68.5°F20.3°C 54% 7.6 mph W12.2 kmh W 16.8 mph27.0 kmh 30.07 in1018.3 mb 0.00 in0.0 mm 0.00 in0.0 mm 0.00 in0.0 mm
03:40 PM 87.1°F30.6°C 68.5°F20.3°C 54% 11.4 mph WNW18.3 kmh WNW 15.9 mph25.6 kmh 30.07 in1018.3 mb 0.00 in0.0 mm 0.00 in0.0 mm 0.00 in0.0 mm
03:45 PM 86.9°F30.5°C 69.4°F20.8°C 56% 5.4 mph W8.7 kmh W 15.9 mph25.6 kmh 30.07 in1018.3 mb 0.00 in0.0 mm 0.00 in0.0 mm 0.00 in0.0 mm
03:50 PM 86.4°F30.2°C 67.8°F19.9°C 54% 6.9 mph W11.1 kmh W 15.9 mph25.6 kmh 30.07 in1018.3 mb 0.00 in0.0 mm 0.00 in0.0 mm 0.00 in0.0 mm
03:55 PM 86.7°F30.4°C 68.1°F20.1°C 54% 7.6 mph NW12.2 kmh NW 13.0 mph20.9 kmh 30.07 in1018.3 mb 0.00 in0.0 mm 0.00 in0.0 mm 0.00 in0.0 mm
04:00 PM 87.3°F30.7°C 68.1°F20.1°C 53% 4.5 mph NW7.2 kmh NW 12.1 mph19.5 kmh 30.07 in1018.3 mb 0.00 in0.0 mm 0.00 in0.0 mm 0.00 in0.0 mm
04:05 PM 86.5°F30.3°C 67.4°F19.7°C 53% 3.8 mph NW6.1 kmh NW 12.1 mph19.5 kmh 30.07 in1018.3 mb 0.00 in0.0 mm 0.00 in0.0 mm 0.00 in0.0 mm
04:10 PM 86.5°F30.3°C 68.5°F20.3°C 55% 3.8 mph WNW6.1 kmh WNW 11.4 mph18.3 kmh 30.06 in1017.9 mb 0.00 in0.0 mm 0.00 in0.0 mm 0.00 in0.0 mm
04:15 PM 87.1°F30.6°C 68.5°F20.3°C 54% 7.6 mph NW12.2 kmh NW 12.1 mph19.5 kmh 30.07 in1018.3 mb 0.00 in0.0 mm 0.00 in0.0 mm 0.00 in0.0 mm
04:20 PM 87.3°F30.7°C 68.1°F20.1°C 53% 6.9 mph NW11.1 kmh NW 12.1 mph19.5 kmh 30.07 in1018.3 mb 0.00 in0.0 mm 0.00 in0.0 mm 0.00 in0.0 mm
04:25 PM 87.3°F30.7°C 68.1°F20.1°C 53% 9.2 mph NW14.8 kmh NW 13.0 mph20.9 kmh 30.07 in1018.3 mb 0.00 in0.0 mm 0.00 in0.0 mm 0.00 in0.0 mm
04:30 PM 87.1°F30.6°C 67.9°F19.9°C 53% 4.5 mph NW7.2 kmh NW 13.0 mph20.9 kmh 30.07 in1018.3 mb 0.00 in0.0 mm 0.00 in0.0 mm 0.00 in0.0 mm
04:35 PM 87.3°F30.7°C 68.1°F20.1°C 53% 6.0 mph NW9.7 kmh NW 11.4 mph18.3 kmh 30.06 in1017.9 mb 0.00 in0.0 mm 0.00 in0.0 mm 0.00 in0.0 mm
04:40 PM 87.1°F30.6°C 67.9°F19.9°C 53% 7.6 mph NW12.2 kmh NW 10.7 mph17.2 kmh 30.06 in1017.9 mb 0.00 in0.0 mm 0.00 in0.0 mm 0.00 in0.0 mm
04:45 PM 86.7°F30.4°C 67.6°F19.8°C 53% 5.4 mph NW8.7 kmh NW 13.0 mph20.9 kmh 30.06 in1017.9 mb 0.00 in0.0 mm 0.00 in0.0 mm 0.00 in0.0 mm
04:50 PM 86.5°F30.3°C 68.0°F20.0°C 54% 9.2 mph NW14.8 kmh NW 13.0 mph20.9 kmh 30.06 in1017.9 mb 0.00 in0.0 mm 0.00 in0.0 mm 0.00 in0.0 mm
04:55 PM 85.8°F29.9°C 67.3°F19.6°C 54% 6.9 mph W11.1 kmh W 15.2 mph24.5 kmh 30.06 in1017.9 mb 0.00 in0.0 mm 0.00 in0.0 mm 0.00 in0.0 mm
05:00 PM 85.8°F29.9°C 68.4°F20.2°C 56% 4.5 mph W7.2 kmh W 15.2 mph24.5 kmh 30.06 in1017.9 mb 0.00 in0.0 mm 0.00 in0.0 mm 0.00 in0.0 mm
05:05 PM 85.8°F29.9°C 67.8°F19.9°C 55% 7.6 mph WSW12.2 kmh WSW 13.0 mph20.9 kmh 30.06 in1017.9 mb 0.00 in0.0 mm 0.00 in0.0 mm 0.00 in0.0 mm
05:10 PM 84.7°F29.3°C 67.4°F19.7°C 56% 7.6 mph WSW12.2 kmh WSW 13.0 mph20.9 kmh 30.06 in1017.9 mb 0.00 in0.0 mm 0.00 in0.0 mm 0.00 in0.0 mm
05:15 PM 84.4°F29.1°C 67.5°F19.7°C 57% 8.3 mph W13.4 kmh W 13.0 mph20.9 kmh 30.06 in1017.9 mb 0.00 in0.0 mm 0.00 in0.0 mm 0.00 in0.0 mm
05:20 PM 84.4°F29.1°C 67.5°F19.7°C 57% 3.8 mph W6.1 kmh W 13.0 mph20.9 kmh 30.06 in1017.9 mb 0.00 in0.0 mm 0.00 in0.0 mm 0.00 in0.0 mm
05:25 PM 84.7°F29.3°C 67.4°F19.7°C 56% 2.2 mph WNW3.5 kmh WNW 12.1 mph19.5 kmh 30.06 in1017.9 mb 0.00 in0.0 mm 0.00 in0.0 mm 0.00 in0.0 mm
05:30 PM 84.7°F29.3°C 67.4°F19.7°C 56% 6.9 mph WNW11.1 kmh WNW 12.1 mph19.5 kmh 30.06 in1017.9 mb 0.00 in0.0 mm 0.00 in0.0 mm 0.00 in0.0 mm
05:35 PM 83.5°F28.6°C 66.7°F19.3°C 57% 4.5 mph NW7.2 kmh NW 11.4 mph18.3 kmh 30.06 in1017.9 mb 0.00 in0.0 mm 0.00 in0.0 mm 0.00 in0.0 mm
05:40 PM 82.4°F28.0°C 66.2°F19.0°C 58% 6.0 mph NW9.7 kmh NW 11.4 mph18.3 kmh 30.06 in1017.9 mb 0.00 in0.0 mm 0.00 in0.0 mm 0.00 in0.0 mm
05:45 PM 81.9°F27.7°C 66.2°F19.0°C 59% 5.4 mph WNW8.7 kmh WNW 11.4 mph18.3 kmh 30.06 in1017.9 mb 0.00 in0.0 mm 0.00 in0.0 mm 0.00 in0.0 mm
05:50 PM 82.2°F27.9°C 66.5°F19.2°C 59% 5.4 mph W8.7 kmh W 11.4 mph18.3 kmh 30.06 in1017.9 mb 0.00 in0.0 mm 0.00 in0.0 mm 0.00 in0.0 mm
05:55 PM 82.2°F27.9°C 66.5°F19.2°C 59% 5.4 mph W8.7 kmh W 11.4 mph18.3 kmh 30.06 in1017.9 mb 0.00 in0.0 mm 0.00 in0.0 mm 0.00 in0.0 mm
06:00 PM 81.9°F27.7°C 66.7°F19.3°C 60% 5.4 mph W8.7 kmh W 11.4 mph18.3 kmh 30.07 in1018.3 mb 0.00 in0.0 mm 0.00 in0.0 mm 0.00 in0.0 mm
06:05 PM 81.5°F27.5°C 66.3°F19.1°C 60% 6.0 mph W9.7 kmh W 11.4 mph18.3 kmh 30.07 in1018.3 mb 0.00 in0.0 mm 0.00 in0.0 mm 0.00 in0.0 mm
06:10 PM 81.3°F27.4°C 66.2°F19.0°C 60% 6.9 mph W11.1 kmh W 11.4 mph18.3 kmh 30.07 in1018.3 mb 0.00 in0.0 mm 0.00 in0.0 mm 0.00 in0.0 mm
06:15 PM 81.5°F27.5°C 66.3°F19.1°C 60% 4.5 mph WNW7.2 kmh WNW 10.7 mph17.2 kmh 30.06 in1017.9 mb 0.00 in0.0 mm 0.00 in0.0 mm 0.00 in0.0 mm
06:20 PM 81.3°F27.4°C 66.6°F19.2°C 61% 5.4 mph WNW8.7 kmh WNW 10.7 mph17.2 kmh 30.06 in1017.9 mb 0.00 in0.0 mm 0.00 in0.0 mm 0.00 in0.0 mm
06:25 PM 80.8°F27.1°C 66.1°F18.9°C 61% 7.6 mph WNW12.2 kmh WNW 12.1 mph19.5 kmh 30.07 in1018.3 mb 0.00 in0.0 mm 0.00 in0.0 mm 0.00 in0.0 mm
06:30 PM 80.2°F26.8°C 66.1°F18.9°C 62% 6.9 mph WNW11.1 kmh WNW 12.1 mph19.5 kmh 30.06 in1017.9 mb 0.00 in0.0 mm 0.00 in0.0 mm 0.00 in0.0 mm
06:35 PM 79.7°F26.5°C 66.0°F18.9°C 63% 6.0 mph W9.7 kmh W 10.7 mph17.2 kmh 30.07 in1018.3 mb 0.00 in0.0 mm 0.00 in0.0 mm 0.00 in0.0 mm
06:40 PM 79.9°F26.6°C 66.2°F19.0°C 63% 4.5 mph WNW7.2 kmh WNW 10.7 mph17.2 kmh 30.07 in1018.3 mb 0.00 in0.0 mm 0.00 in0.0 mm 0.00 in0.0 mm
06:45 PM 80.1°F26.7°C 65.9°F18.8°C 62% 7.6 mph NW12.2 kmh NW 9.8 mph15.8 kmh 30.07 in1018.3 mb 0.00 in0.0 mm 0.00 in0.0 mm 0.00 in0.0 mm
06:50 PM 79.5°F26.4°C 65.4°F18.6°C 62% 7.6 mph WNW12.2 kmh WNW 10.7 mph17.2 kmh 30.06 in1017.9 mb 0.00 in0.0 mm 0.00 in0.0 mm 0.00 in0.0 mm
06:55 PM 79.2°F26.2°C 65.5°F18.6°C 63% 6.0 mph NW9.7 kmh NW 10.7 mph17.2 kmh 30.07 in1018.3 mb 0.00 in0.0 mm 0.00 in0.0 mm 0.00 in0.0 mm
07:00 PM 78.4°F25.8°C 65.7°F18.7°C 65% 5.4 mph WNW8.7 kmh WNW 10.7 mph17.2 kmh 30.07 in1018.3 mb 0.00 in0.0 mm 0.00 in0.0 mm 0.00 in0.0 mm
07:05 PM 77.5°F25.3°C 65.8°F18.8°C 67% 6.0 mph W9.7 kmh W 11.4 mph18.3 kmh 30.07 in1018.3 mb 0.00 in0.0 mm 0.00 in0.0 mm 0.00 in0.0 mm
07:10 PM 77.2°F25.1°C 65.8°F18.8°C 68% 5.4 mph W8.7 kmh W 11.4 mph18.3 kmh 30.07 in1018.3 mb 0.00 in0.0 mm 0.00 in0.0 mm 0.00 in0.0 mm
07:15 PM 76.8°F24.9°C 65.5°F18.6°C 68% 5.4 mph W8.7 kmh W 10.7 mph17.2 kmh 30.07 in1018.3 mb 0.00 in0.0 mm 0.00 in0.0 mm 0.00 in0.0 mm
07:20 PM 76.6°F24.8°C 65.3°F18.5°C 68% 6.9 mph WNW11.1 kmh WNW 10.7 mph17.2 kmh 30.07 in1018.3 mb 0.00 in0.0 mm 0.00 in0.0 mm 0.00 in0.0 mm
07:25 PM 76.5°F24.7°C 65.2°F18.4°C 68% 4.5 mph NW7.2 kmh NW 10.7 mph17.2 kmh 30.07 in1018.3 mb 0.00 in0.0 mm 0.00 in0.0 mm 0.00 in0.0 mm
07:30 PM 75.9°F24.4°C 65.5°F18.6°C 70% 3.8 mph NW6.1 kmh NW 9.8 mph15.8 kmh 30.08 in1018.6 mb 0.00 in0.0 mm 0.00 in0.0 mm 0.00 in0.0 mm
07:35 PM 75.4°F24.1°C 65.0°F18.3°C 70% 5.4 mph NW8.7 kmh NW 8.3 mph13.4 kmh 30.08 in1018.6 mb 0.00 in0.0 mm 0.00 in0.0 mm 0.00 in0.0 mm
07:40 PM 74.8°F23.8°C 64.4°F18.0°C 70% 4.5 mph WNW7.2 kmh WNW 8.3 mph13.4 kmh 30.08 in1018.6 mb 0.00 in0.0 mm 0.00 in0.0 mm 0.00 in0.0 mm
07:45 PM 74.3°F23.5°C 63.9°F17.7°C 70% 5.4 mph WNW8.7 kmh WNW 9.2 mph14.8 kmh 30.09 in1019.0 mb 0.00 in0.0 mm 0.00 in0.0 mm 0.00 in0.0 mm
07:50 PM 74.1°F23.4°C 64.2°F17.9°C 71% 4.5 mph W7.2 kmh W 9.8 mph15.8 kmh 30.09 in1019.0 mb 0.00 in0.0 mm 0.00 in0.0 mm 0.00 in0.0 mm
07:55 PM 73.6°F23.1°C 63.6°F17.6°C 71% 5.4 mph WNW8.7 kmh WNW 9.8 mph15.8 kmh 30.09 in1019.0 mb 0.00 in0.0 mm 0.00 in0.0 mm 0.00 in0.0 mm
08:00 PM 73.4°F23.0°C 63.5°F17.5°C 71% 5.4 mph W8.7 kmh W 9.2 mph14.8 kmh 30.09 in1019.0 mb 0.00 in0.0 mm 0.00 in0.0 mm 0.00 in0.0 mm
08:05 PM 73.0°F22.8°C 63.9°F17.7°C 73% 4.5 mph W7.2 kmh W 9.2 mph14.8 kmh 30.10 in1019.3 mb 0.00 in0.0 mm 0.00 in0.0 mm 0.00 in0.0 mm
08:10 PM 72.5°F22.5°C 64.2°F17.9°C 75% 3.1 mph W5.0 kmh W 9.2 mph14.8 kmh 30.10 in1019.3 mb 0.00 in0.0 mm 0.00 in0.0 mm 0.00 in0.0 mm
08:15 PM 72.3°F22.4°C 64.4°F18.0°C 76% 3.8 mph W6.1 kmh W 7.6 mph12.2 kmh 30.11 in1019.6 mb 0.00 in0.0 mm 0.00 in0.0 mm 0.00 in0.0 mm
08:20 PM 72.0°F22.2°C 64.4°F18.0°C 77% 3.1 mph W5.0 kmh W 6.9 mph11.1 kmh 30.11 in1019.6 mb 0.00 in0.0 mm 0.00 in0.0 mm 0.00 in0.0 mm
08:25 PM 71.6°F22.0°C 64.4°F18.0°C 78% 3.8 mph W6.1 kmh W 5.4 mph8.7 kmh 30.11 in1019.6 mb 0.00 in0.0 mm 0.00 in0.0 mm 0.00 in0.0 mm
08:30 PM 71.4°F21.9°C 64.6°F18.1°C 79% 2.2 mph W3.5 kmh W 6.0 mph9.7 kmh 30.11 in1019.6 mb 0.00 in0.0 mm 0.00 in0.0 mm 0.00 in0.0 mm
08:35 PM 71.4°F21.9°C 64.6°F18.1°C 79% 1.6 mph W2.6 kmh W 6.0 mph9.7 kmh 30.11 in1019.6 mb 0.00 in0.0 mm 0.00 in0.0 mm 0.00 in0.0 mm
08:40 PM 71.2°F21.8°C 64.4°F18.0°C 79% 1.6 mph W2.6 kmh W 4.5 mph7.2 kmh 30.11 in1019.6 mb 0.00 in0.0 mm 0.00 in0.0 mm 0.00 in0.0 mm
08:45 PM 70.9°F21.6°C 64.4°F18.0°C 80% 3.1 mph W5.0 kmh W 4.5 mph7.2 kmh 30.11 in1019.6 mb 0.00 in0.0 mm 0.00 in0.0 mm 0.00 in0.0 mm
08:50 PM 70.5°F21.4°C 64.8°F18.2°C 82% 2.2 mph W3.5 kmh W 4.5 mph7.2 kmh 30.11 in1019.6 mb 0.00 in0.0 mm 0.00 in0.0 mm 0.00 in0.0 mm
08:55 PM 70.5°F21.4°C 65.5°F18.6°C 84% 2.2 mph W3.5 kmh W 4.5 mph7.2 kmh 30.12 in1020.0 mb 0.00 in0.0 mm 0.00 in0.0 mm 0.00 in0.0 mm
09:00 PM 70.3°F21.3°C 65.3°F18.5°C 84% 1.6 mph W2.6 kmh W 4.5 mph7.2 kmh 30.12 in1020.0 mb 0.00 in0.0 mm 0.00 in0.0 mm 0.00 in0.0 mm
09:05 PM 70.2°F21.2°C 65.5°F18.6°C 85% 2.2 mph W3.5 kmh W 4.5 mph7.2 kmh 30.11 in1019.6 mb 0.00 in0.0 mm 0.00 in0.0 mm 0.00 in0.0 mm
09:10 PM 69.8°F21.0°C 65.5°F18.6°C 86% 2.2 mph W3.5 kmh W 5.4 mph8.7 kmh 30.12 in1020.0 mb 0.00 in0.0 mm 0.00 in0.0 mm 0.00 in0.0 mm
09:15 PM 69.6°F20.9°C 65.6°F18.7°C 87% 2.2 mph W3.5 kmh W 5.4 mph8.7 kmh 30.12 in1020.0 mb 0.00 in0.0 mm 0.00 in0.0 mm 0.00 in0.0 mm
09:20 PM 69.4°F20.8°C 65.8°F18.8°C 88% 3.1 mph W5.0 kmh W 5.4 mph8.7 kmh 30.12 in1020.0 mb 0.00 in0.0 mm 0.00 in0.0 mm 0.00 in0.0 mm
09:25 PM 69.1°F20.6°C 65.7°F18.7°C 89% 2.2 mph W3.5 kmh W 5.4 mph8.7 kmh 30.12 in1020.0 mb 0.00 in0.0 mm 0.00 in0.0 mm 0.00 in0.0 mm
09:30 PM 68.9°F20.5°C 65.9°F18.8°C 90% 2.2 mph W3.5 kmh W 5.4 mph8.7 kmh 30.12 in1020.0 mb 0.00 in0.0 mm 0.00 in0.0 mm 0.00 in0.0 mm
09:35 PM 68.9°F20.5°C 65.9°F18.8°C 90% 3.1 mph W5.0 kmh W 3.8 mph6.1 kmh 30.12 in1020.0 mb 0.00 in0.0 mm 0.00 in0.0 mm 0.00 in0.0 mm
09:40 PM 68.7°F20.4°C 66.3°F19.1°C 92% 2.2 mph W3.5 kmh W 3.8 mph6.1 kmh 30.12 in1020.0 mb 0.00 in0.0 mm 0.00 in0.0 mm 0.00 in0.0 mm
09:45 PM 68.7°F20.4°C 66.6°F19.2°C 93% 3.8 mph W6.1 kmh W 4.5 mph7.2 kmh 30.12 in1020.0 mb 0.00 in0.0 mm 0.00 in0.0 mm 0.00 in0.0 mm
09:50 PM 68.4°F20.2°C 66.6°F19.2°C 94% 3.8 mph W6.1 kmh W 5.4 mph8.7 kmh 30.12 in1020.0 mb 0.00 in0.0 mm 0.00 in0.0 mm 0.00 in0.0 mm
09:55 PM 68.4°F20.2°C 66.9°F19.4°C 95% 4.5 mph WSW7.2 kmh WSW 6.0 mph9.7 kmh 30.12 in1020.0 mb 0.00 in0.0 mm 0.00 in0.0 mm 0.00 in0.0 mm
10:00 PM 68.2°F20.1°C 67.0°F19.4°C 96% 3.8 mph SW6.1 kmh SW 6.0 mph9.7 kmh 30.13 in1020.3 mb 0.00 in0.0 mm 0.00 in0.0 mm 0.00 in0.0 mm
10:05 PM 68.2°F20.1°C 67.3°F19.6°C 97% 4.5 mph SW7.2 kmh SW 6.0 mph9.7 kmh 30.13 in1020.3 mb 0.00 in0.0 mm 0.00 in0.0 mm 0.00 in0.0 mm
10:10 PM 68.0°F20.0°C 67.4°F19.7°C 98% 5.4 mph SW8.7 kmh SW 6.9 mph11.1 kmh 30.13 in1020.3 mb 0.00 in0.0 mm 0.00 in0.0 mm 0.00 in0.0 mm
10:15 PM 68.2°F20.1°C 67.9°F19.9°C 99% 6.0 mph SW9.7 kmh SW 7.6 mph12.2 kmh 30.13 in1020.3 mb 0.00 in0.0 mm 0.00 in0.0 mm 0.00 in0.0 mm
10:20 PM 68.2°F20.1°C 67.9°F19.9°C 99% 3.8 mph SW6.1 kmh SW 7.6 mph12.2 kmh 30.12 in1020.0 mb 0.00 in0.0 mm 0.00 in0.0 mm 0.00 in0.0 mm
10:25 PM 68.4°F20.2°C 68.1°F20.1°C 99% 5.4 mph WSW8.7 kmh WSW 7.6 mph12.2 kmh 30.13 in1020.3 mb 0.00 in0.0 mm 0.00 in0.0 mm 0.00 in0.0 mm
10:30 PM 68.4°F20.2°C 68.1°F20.1°C 99% 1.6 mph W2.6 kmh W 7.6 mph12.2 kmh 30.13 in1020.3 mb 0.00 in0.0 mm 0.00 in0.0 mm 0.00 in0.0 mm
10:35 PM 68.2°F20.1°C 67.9°F19.9°C 99% 2.2 mph W3.5 kmh W 6.9 mph11.1 kmh 30.13 in1020.3 mb 0.00 in0.0 mm 0.00 in0.0 mm 0.00 in0.0 mm
10:40 PM 68.0°F20.0°C 67.7°F19.8°C 99% 1.6 mph W2.6 kmh W 3.1 mph5.0 kmh 30.13 in1020.3 mb 0.00 in0.0 mm 0.00 in0.0 mm 0.00 in0.0 mm
10:45 PM 67.8°F19.9°C 67.6°F19.8°C 99% 2.2 mph W3.5 kmh W 4.5 mph7.2 kmh 30.14 in1020.7 mb 0.00 in0.0 mm 0.00 in0.0 mm 0.00 in0.0 mm
10:50 PM 67.8°F19.9°C 67.6°F19.8°C 99% 4.5 mph WSW7.2 kmh WSW 6.9 mph11.1 kmh 30.13 in1020.3 mb 0.00 in0.0 mm 0.00 in0.0 mm 0.00 in0.0 mm
10:55 PM 67.8°F19.9°C 67.6°F19.8°C 99% 4.5 mph WSW7.2 kmh WSW 6.9 mph11.1 kmh 30.14 in1020.7 mb 0.00 in0.0 mm 0.00 in0.0 mm 0.00 in0.0 mm
11:00 PM 68.0°F20.0°C 67.7°F19.8°C 99% 2.2 mph WSW3.5 kmh WSW 6.9 mph11.1 kmh 30.14 in1020.7 mb 0.00 in0.0 mm 0.00 in0.0 mm 0.00 in0.0 mm
11:05 PM 67.8°F19.9°C 67.6°F19.8°C 99% 3.1 mph W5.0 kmh W 6.9 mph11.1 kmh 30.14 in1020.7 mb 0.00 in0.0 mm 0.00 in0.0 mm 0.00 in0.0 mm
11:10 PM 67.8°F19.9°C 67.6°F19.8°C 99% 1.6 mph W2.6 kmh W 5.4 mph8.7 kmh 30.14 in1020.7 mb 0.00 in0.0 mm 0.00 in0.0 mm 0.00 in0.0 mm
11:15 PM 67.6°F19.8°C 67.4°F19.7°C 99% 1.6 mph WSW2.6 kmh WSW 5.4 mph8.7 kmh 30.14 in1020.7 mb 0.00 in0.0 mm 0.00 in0.0 mm 0.00 in0.0 mm
11:20 PM 67.8°F19.9°C 67.6°F19.8°C 99% 2.2 mph WSW3.5 kmh WSW 4.5 mph7.2 kmh 30.14 in1020.7 mb 0.00 in0.0 mm 0.00 in0.0 mm 0.00 in0.0 mm
11:25 PM 67.8°F19.9°C 67.6°F19.8°C 99% 0.7 mph WSW1.1 kmh WSW 4.5 mph7.2 kmh 30.14 in1020.7 mb 0.00 in0.0 mm 0.00 in0.0 mm 0.00 in0.0 mm
11:30 PM 67.6°F19.8°C 67.4°F19.7°C 99% 0.7 mph W1.1 kmh W 3.8 mph6.1 kmh 30.14 in1020.7 mb 0.00 in0.0 mm 0.00 in0.0 mm 0.00 in0.0 mm
11:35 PM 67.6°F19.8°C 67.4°F19.7°C 99% Calm Calm 1.6 mph2.6 kmh 30.15 in1021.0 mb 0.00 in0.0 mm 0.00 in0.0 mm 0.00 in0.0 mm
11:40 PM 67.5°F19.7°C 67.2°F19.6°C 99% Calm Calm 1.6 mph2.6 kmh 30.15 in1021.0 mb 0.00 in0.0 mm 0.00 in0.0 mm 0.00 in0.0 mm
11:45 PM 67.5°F19.7°C 67.2°F19.6°C 99% Calm Calm 1.6 mph2.6 kmh 30.15 in1021.0 mb 0.00 in0.0 mm 0.00 in0.0 mm 0.00 in0.0 mm
11:50 PM 67.3°F19.6°C 67.0°F19.4°C 99% Calm Calm 1.6 mph2.6 kmh 30.15 in1021.0 mb 0.00 in0.0 mm 0.00 in0.0 mm 0.00 in0.0 mm
11:55 PM 67.1°F19.5°C 66.8°F19.3°C 99% Calm Calm 1.6 mph2.6 kmh 30.15 in1021.0 mb 0.00 in0.0 mm 0.00 in0.0 mm 0.00 in0.0 mm